sensor_id;sensor_type;location;lat;lon;timestamp;pressure;altitude;pressure_sealevel;temperature;humidity
68380;BME280;57711;53.196;19.638;2022-12-10T00:01:21;99448.26;;;1.90;71.71
68380;BME280;57711;53.196;19.638;2022-12-10T00:03:49;99452.52;;;1.91;71.85
68380;BME280;57711;53.196;19.638;2022-12-10T00:06:22;99455.73;;;1.90;71.79
68380;BME280;57711;53.196;19.638;2022-12-10T00:08:50;99460.14;;;1.91;71.86
68380;BME280;57711;53.196;19.638;2022-12-10T00:11:19;99457.08;;;1.92;71.92
68380;BME280;57711;53.196;19.638;2022-12-10T00:13:48;99461.85;;;1.92;71.92
68380;BME280;57711;53.196;19.638;2022-12-10T00:16:17;99456.59;;;1.91;71.95
68380;BME280;57711;53.196;19.638;2022-12-10T00:18:45;99454.08;;;1.88;71.89
68380;BME280;57711;53.196;19.638;2022-12-10T00:21:17;99454.78;;;1.86;71.90
68380;BME280;57711;53.196;19.638;2022-12-10T00:23:45;99455.95;;;1.84;71.91
68380;BME280;57711;53.196;19.638;2022-12-10T00:26:18;99454.00;;;1.84;71.88
68380;BME280;57711;53.196;19.638;2022-12-10T00:28:47;99452.72;;;1.84;71.87
68380;BME280;57711;53.196;19.638;2022-12-10T00:31:17;99452.41;;;1.86;71.73
68380;BME280;57711;53.196;19.638;2022-12-10T00:33:45;99452.33;;;1.91;71.90
68380;BME280;57711;53.196;19.638;2022-12-10T00:36:33;99454.74;;;1.95;71.94
68380;BME280;57711;53.196;19.638;2022-12-10T00:39:01;99454.30;;;1.98;71.99
68380;BME280;57711;53.196;19.638;2022-12-10T00:41:29;99454.03;;;2.00;71.79
68380;BME280;57711;53.196;19.638;2022-12-10T00:43:56;99455.96;;;2.00;71.92
68380;BME280;57711;53.196;19.638;2022-12-10T00:46:23;99453.02;;;1.99;71.84
68380;BME280;57711;53.196;19.638;2022-12-10T00:48:51;99453.69;;;1.97;71.87
68380;BME280;57711;53.196;19.638;2022-12-10T00:51:23;99453.54;;;1.94;71.84
68380;BME280;57711;53.196;19.638;2022-12-10T00:53:53;99452.62;;;1.92;71.88
68380;BME280;57711;53.196;19.638;2022-12-10T00:56:23;99449.39;;;1.89;71.91
68380;BME280;57711;53.196;19.638;2022-12-10T00:58:51;99453.58;;;1.85;71.93
68380;BME280;57711;53.196;19.638;2022-12-10T01:01:19;99457.70;;;1.85;71.95
68380;BME280;57711;53.196;19.638;2022-12-10T01:03:49;99452.80;;;1.86;71.83
68380;BME280;57711;53.196;19.638;2022-12-10T01:06:23;99453.00;;;1.88;71.75
68380;BME280;57711;53.196;19.638;2022-12-10T01:08:52;99450.26;;;1.89;71.80
68380;BME280;57711;53.196;19.638;2022-12-10T01:11:22;99455.96;;;1.92;71.74
68380;BME280;57711;53.196;19.638;2022-12-10T01:13:52;99452.48;;;1.94;71.84
68380;BME280;57711;53.196;19.638;2022-12-10T01:16:20;99451.66;;;1.95;71.89
68380;BME280;57711;53.196;19.638;2022-12-10T01:18:52;99449.98;;;1.97;71.83
68380;BME280;57711;53.196;19.638;2022-12-10T01:21:20;99450.30;;;1.97;71.88
68380;BME280;57711;53.196;19.638;2022-12-10T01:23:50;99449.59;;;1.94;71.77
68380;BME280;57711;53.196;19.638;2022-12-10T01:26:20;99443.80;;;1.90;71.76
68380;BME280;57711;53.196;19.638;2022-12-10T01:28:48;99445.33;;;1.88;71.88
68380;BME280;57711;53.196;19.638;2022-12-10T01:31:23;99440.04;;;1.87;71.96
68380;BME280;57711;53.196;19.638;2022-12-10T01:33:50;99438.50;;;1.86;71.89
68380;BME280;57711;53.196;19.638;2022-12-10T01:36:24;99438.11;;;1.84;71.91
68380;BME280;57711;53.196;19.638;2022-12-10T01:38:51;99437.48;;;1.86;71.88
68380;BME280;57711;53.196;19.638;2022-12-10T01:41:22;99436.91;;;1.86;71.74
68380;BME280;57711;53.196;19.638;2022-12-10T01:46:37;99434.72;;;1.90;71.71
68380;BME280;57711;53.196;19.638;2022-12-10T01:49:07;99432.23;;;1.90;71.62
68380;BME280;57711;53.196;19.638;2022-12-10T01:51:38;99430.69;;;1.88;71.56
68380;BME280;57711;53.196;19.638;2022-12-10T01:54:13;99430.40;;;1.85;71.62
68380;BME280;57711;53.196;19.638;2022-12-10T01:56:45;99428.05;;;1.86;71.73
68380;BME280;57711;53.196;19.638;2022-12-10T01:59:13;99429.11;;;1.86;71.78
68380;BME280;57711;53.196;19.638;2022-12-10T02:01:52;99428.38;;;1.86;71.73
68380;BME280;57711;53.196;19.638;2022-12-10T02:07:00;99422.08;;;1.79;71.70
68380;BME280;57711;53.196;19.638;2022-12-10T02:09:34;99421.37;;;1.74;71.76
68380;BME280;57711;53.196;19.638;2022-12-10T02:17:15;99423.20;;;1.73;71.71
68380;BME280;57711;53.196;19.638;2022-12-10T02:19:56;99422.09;;;1.76;71.68
68380;BME280;57711;53.196;19.638;2022-12-10T02:22:29;99419.89;;;1.80;71.80
68380;BME280;57711;53.196;19.638;2022-12-10T02:24:59;99417.67;;;1.83;71.73
68380;BME280;57711;53.196;19.638;2022-12-10T02:27:59;99418.83;;;1.85;71.71
68380;BME280;57711;53.196;19.638;2022-12-10T02:30:30;99416.45;;;1.86;71.78
68380;BME280;57711;53.196;19.638;2022-12-10T02:33:00;99421.17;;;1.87;71.85
68380;BME280;57711;53.196;19.638;2022-12-10T02:35:31;99423.11;;;1.87;71.81
68380;BME280;57711;53.196;19.638;2022-12-10T02:38:09;99415.79;;;1.85;71.72
68380;BME280;57711;53.196;19.638;2022-12-10T02:40:41;99416.23;;;1.83;71.79
68380;BME280;57711;53.196;19.638;2022-12-10T02:43:12;99415.50;;;1.81;71.77
68380;BME280;57711;53.196;19.638;2022-12-10T02:45:42;99413.59;;;1.81;71.81
68380;BME280;57711;53.196;19.638;2022-12-10T02:48:12;99415.33;;;1.79;71.80
68380;BME280;57711;53.196;19.638;2022-12-10T02:50:41;99417.16;;;1.78;71.77
68380;BME280;57711;53.196;19.638;2022-12-10T02:53:09;99417.95;;;1.77;71.76
68380;BME280;57711;53.196;19.638;2022-12-10T03:01:47;99416.23;;;1.70;71.61
68380;BME280;57711;53.196;19.638;2022-12-10T03:07:02;99416.15;;;1.69;71.67
68380;BME280;57711;53.196;19.638;2022-12-10T03:09:43;99420.05;;;1.66;71.69
68380;BME280;57711;53.196;19.638;2022-12-10T03:12:21;99421.06;;;1.59;71.58
68380;BME280;57711;53.196;19.638;2022-12-10T03:14:53;99420.80;;;1.55;71.66
68380;BME280;57711;53.196;19.638;2022-12-10T03:17:26;99421.67;;;1.56;71.79
68380;BME280;57711;53.196;19.638;2022-12-10T03:19:55;99418.77;;;1.56;71.79
68380;BME280;57711;53.196;19.638;2022-12-10T03:22:22;99418.73;;;1.57;71.75
68380;BME280;57711;53.196;19.638;2022-12-10T03:24:50;99418.23;;;1.57;71.76
68380;BME280;57711;53.196;19.638;2022-12-10T03:27:20;99416.01;;;1.55;71.63
68380;BME280;57711;53.196;19.638;2022-12-10T03:29:50;99418.86;;;1.55;71.59
68380;BME280;57711;53.196;19.638;2022-12-10T03:32:20;99421.27;;;1.56;71.68
68380;BME280;57711;53.196;19.638;2022-12-10T03:34:51;99426.48;;;1.58;71.58
68380;BME280;57711;53.196;19.638;2022-12-10T03:37:20;99426.50;;;1.60;71.65
68380;BME280;57711;53.196;19.638;2022-12-10T03:39:48;99426.05;;;1.65;71.66
68380;BME280;57711;53.196;19.638;2022-12-10T03:42:16;99428.00;;;1.67;71.72
68380;BME280;57711;53.196;19.638;2022-12-10T03:44:43;99430.34;;;1.70;71.68
68380;BME280;57711;53.196;19.638;2022-12-10T03:47:13;99425.77;;;1.69;71.62
68380;BME280;57711;53.196;19.638;2022-12-10T03:49:42;99426.16;;;1.66;71.58
68380;BME280;57711;53.196;19.638;2022-12-10T03:52:10;99422.86;;;1.64;71.76
68380;BME280;57711;53.196;19.638;2022-12-10T03:54:38;99424.66;;;1.64;71.71
68380;BME280;57711;53.196;19.638;2022-12-10T03:57:05;99422.48;;;1.62;71.64
68380;BME280;57711;53.196;19.638;2022-12-10T03:59:32;99423.23;;;1.62;71.67
68380;BME280;57711;53.196;19.638;2022-12-10T04:02:00;99422.30;;;1.60;71.76
68380;BME280;57711;53.196;19.638;2022-12-10T04:04:27;99422.98;;;1.60;71.77
68380;BME280;57711;53.196;19.638;2022-12-10T04:06:54;99420.36;;;1.62;71.65
68380;BME280;57711;53.196;19.638;2022-12-10T04:09:21;99423.54;;;1.65;71.66
68380;BME280;57711;53.196;19.638;2022-12-10T04:11:48;99420.23;;;1.69;71.65
68380;BME280;57711;53.196;19.638;2022-12-10T04:14:16;99418.42;;;1.72;71.70
68380;BME280;57711;53.196;19.638;2022-12-10T04:17:01;99422.52;;;1.72;71.55
68380;BME280;57711;53.196;19.638;2022-12-10T04:19:29;99427.91;;;1.72;71.60
68380;BME280;57711;53.196;19.638;2022-12-10T04:21:56;99432.63;;;1.70;71.62
68380;BME280;57711;53.196;19.638;2022-12-10T04:24:42;99434.28;;;1.70;71.58
68380;BME280;57711;53.196;19.638;2022-12-10T04:27:30;99434.73;;;1.66;71.61
68380;BME280;57711;53.196;19.638;2022-12-10T04:29:59;99435.29;;;1.60;71.67
68380;BME280;57711;53.196;19.638;2022-12-10T04:32:28;99438.08;;;1.58;71.75
68380;BME280;57711;53.196;19.638;2022-12-10T04:34:56;99441.39;;;1.57;71.67
68380;BME280;57711;53.196;19.638;2022-12-10T04:37:24;99436.36;;;1.54;71.72
68380;BME280;57711;53.196;19.638;2022-12-10T04:39:52;99438.81;;;1.55;71.63
68380;BME280;57711;53.196;19.638;2022-12-10T04:42:21;99438.99;;;1.58;71.60
68380;BME280;57711;53.196;19.638;2022-12-10T04:44:48;99437.92;;;1.60;71.68
68380;BME280;57711;53.196;19.638;2022-12-10T04:47:16;99437.76;;;1.63;71.57
68380;BME280;57711;53.196;19.638;2022-12-10T04:49:43;99438.59;;;1.64;71.65
68380;BME280;57711;53.196;19.638;2022-12-10T04:52:13;99437.84;;;1.64;71.53
68380;BME280;57711;53.196;19.638;2022-12-10T04:54:41;99435.92;;;1.64;71.53
68380;BME280;57711;53.196;19.638;2022-12-10T04:57:09;99435.38;;;1.64;71.52
68380;BME280;57711;53.196;19.638;2022-12-10T04:59:36;99435.90;;;1.64;71.60
68380;BME280;57711;53.196;19.638;2022-12-10T05:02:04;99432.70;;;1.64;71.65
68380;BME280;57711;53.196;19.638;2022-12-10T05:04:31;99433.91;;;1.62;71.57
68380;BME280;57711;53.196;19.638;2022-12-10T05:06:59;99434.70;;;1.58;71.59
68380;BME280;57711;53.196;19.638;2022-12-10T05:09:26;99440.70;;;1.53;71.64
68380;BME280;57711;53.196;19.638;2022-12-10T05:11:53;99438.91;;;1.50;71.61
68380;BME280;57711;53.196;19.638;2022-12-10T05:14:20;99444.89;;;1.52;71.65
68380;BME280;57711;53.196;19.638;2022-12-10T05:16:50;99445.30;;;1.54;71.59
68380;BME280;57711;53.196;19.638;2022-12-10T05:19:18;99449.00;;;1.57;71.56
68380;BME280;57711;53.196;19.638;2022-12-10T05:21:46;99453.02;;;1.61;71.62
68380;BME280;57711;53.196;19.638;2022-12-10T05:24:33;99452.73;;;1.65;71.59
68380;BME280;57711;53.196;19.638;2022-12-10T05:27:00;99453.36;;;1.67;71.54
68380;BME280;57711;53.196;19.638;2022-12-10T05:29:27;99454.36;;;1.67;71.51
68380;BME280;57711;53.196;19.638;2022-12-10T05:31:54;99454.69;;;1.63;71.48
68380;BME280;57711;53.196;19.638;2022-12-10T05:34:21;99452.48;;;1.61;71.64
68380;BME280;57711;53.196;19.638;2022-12-10T05:36:49;99455.52;;;1.61;71.60
68380;BME280;57711;53.196;19.638;2022-12-10T05:39:17;99455.15;;;1.61;71.60
68380;BME280;57711;53.196;19.638;2022-12-10T05:41:45;99453.69;;;1.59;71.56
68380;BME280;57711;53.196;19.638;2022-12-10T05:44:12;99455.96;;;1.57;71.60
68380;BME280;57711;53.196;19.638;2022-12-10T05:46:40;99456.35;;;1.54;71.56
68380;BME280;57711;53.196;19.638;2022-12-10T05:49:07;99458.27;;;1.55;71.61
68380;BME280;57711;53.196;19.638;2022-12-10T05:51:36;99460.30;;;1.59;71.50
68380;BME280;57711;53.196;19.638;2022-12-10T05:54:05;99464.52;;;1.62;71.55
68380;BME280;57711;53.196;19.638;2022-12-10T05:56:33;99470.79;;;1.67;71.51
68380;BME280;57711;53.196;19.638;2022-12-10T05:59:02;99471.16;;;1.70;71.34
68380;BME280;57711;53.196;19.638;2022-12-10T06:01:32;99470.80;;;1.70;71.38
68380;BME280;57711;53.196;19.638;2022-12-10T06:04:01;99473.87;;;1.69;71.39
68380;BME280;57711;53.196;19.638;2022-12-10T06:06:31;99472.79;;;1.69;71.52
68380;BME280;57711;53.196;19.638;2022-12-10T06:08:59;99477.77;;;1.69;71.58
68380;BME280;57711;53.196;19.638;2022-12-10T06:11:28;99473.35;;;1.69;71.61
68380;BME280;57711;53.196;19.638;2022-12-10T06:13:58;99477.52;;;1.68;71.59
68380;BME280;57711;53.196;19.638;2022-12-10T06:16:27;99477.01;;;1.67;71.59
68380;BME280;57711;53.196;19.638;2022-12-10T06:18:54;99480.23;;;1.67;71.64
68380;BME280;57711;53.196;19.638;2022-12-10T06:21:22;99483.75;;;1.65;71.59
68380;BME280;57711;53.196;19.638;2022-12-10T06:23:50;99483.83;;;1.61;71.48
68380;BME280;57711;53.196;19.638;2022-12-10T06:26:25;99483.55;;;1.63;71.58
68380;BME280;57711;53.196;19.638;2022-12-10T06:28:53;99487.59;;;1.66;71.43
68380;BME280;57711;53.196;19.638;2022-12-10T06:31:21;99486.69;;;1.69;71.44
68380;BME280;57711;53.196;19.638;2022-12-10T06:33:49;99489.54;;;1.72;71.43
68380;BME280;57711;53.196;19.638;2022-12-10T06:36:17;99488.84;;;1.75;71.47
68380;BME280;57711;53.196;19.638;2022-12-10T06:38:45;99495.63;;;1.74;71.38
68380;BME280;57711;53.196;19.638;2022-12-10T06:41:14;99496.73;;;1.77;71.49
68380;BME280;57711;53.196;19.638;2022-12-10T06:43:41;99492.11;;;1.79;71.48
68380;BME280;57711;53.196;19.638;2022-12-10T06:46:12;99494.50;;;1.81;71.43
68380;BME280;57711;53.196;19.638;2022-12-10T06:48:40;99496.67;;;1.80;71.54
68380;BME280;57711;53.196;19.638;2022-12-10T06:51:09;99495.16;;;1.79;71.50
68380;BME280;57711;53.196;19.638;2022-12-10T06:53:36;99497.92;;;1.78;71.47
68380;BME280;57711;53.196;19.638;2022-12-10T06:56:05;99496.80;;;1.76;71.53
68380;BME280;57711;53.196;19.638;2022-12-10T06:58:34;99495.43;;;1.75;71.56
68380;BME280;57711;53.196;19.638;2022-12-10T07:01:13;99492.48;;;1.70;71.44
68380;BME280;57711;53.196;19.638;2022-12-10T07:03:42;99492.32;;;1.67;71.43
68380;BME280;57711;53.196;19.638;2022-12-10T07:06:10;99488.27;;;1.67;71.49
68380;BME280;57711;53.196;19.638;2022-12-10T07:08:38;99489.40;;;1.69;71.43
68380;BME280;57711;53.196;19.638;2022-12-10T07:11:07;99485.09;;;1.69;71.36
68380;BME280;57711;53.196;19.638;2022-12-10T07:13:35;99483.27;;;1.70;71.43
68380;BME280;57711;53.196;19.638;2022-12-10T07:16:03;99481.35;;;1.72;71.43
68380;BME280;57711;53.196;19.638;2022-12-10T07:18:38;99485.58;;;1.76;71.51
68380;BME280;57711;53.196;19.638;2022-12-10T07:21:23;99485.41;;;1.78;71.40
68380;BME280;57711;53.196;19.638;2022-12-10T07:23:52;99485.61;;;1.80;71.48
68380;BME280;57711;53.196;19.638;2022-12-10T07:26:21;99487.73;;;1.80;71.53
68380;BME280;57711;53.196;19.638;2022-12-10T07:28:48;99492.66;;;1.79;71.48
68380;BME280;57711;53.196;19.638;2022-12-10T07:31:21;99486.18;;;1.77;71.53
68380;BME280;57711;53.196;19.638;2022-12-10T07:33:50;99485.48;;;1.74;71.35
68380;BME280;57711;53.196;19.638;2022-12-10T07:36:18;99485.73;;;1.70;71.45
68380;BME280;57711;53.196;19.638;2022-12-10T07:38:46;99483.88;;;1.69;71.50
68380;BME280;57711;53.196;19.638;2022-12-10T07:41:13;99485.42;;;1.67;71.54
68380;BME280;57711;53.196;19.638;2022-12-10T07:43:42;99485.70;;;1.68;71.48
68380;BME280;57711;53.196;19.638;2022-12-10T07:46:17;99483.86;;;1.72;71.37
68380;BME280;57711;53.196;19.638;2022-12-10T07:48:45;99485.27;;;1.75;71.41
68380;BME280;57711;53.196;19.638;2022-12-10T07:51:13;99489.02;;;1.77;71.38
68380;BME280;57711;53.196;19.638;2022-12-10T07:53:42;99491.17;;;1.80;71.33
68380;BME280;57711;53.196;19.638;2022-12-10T07:56:10;99495.17;;;1.84;71.44
68380;BME280;57711;53.196;19.638;2022-12-10T07:58:41;99494.89;;;1.86;71.34
68380;BME280;57711;53.196;19.638;2022-12-10T08:01:09;99498.71;;;1.87;71.45
68380;BME280;57711;53.196;19.638;2022-12-10T08:03:37;99497.24;;;1.87;71.38
68380;BME280;57711;53.196;19.638;2022-12-10T08:06:09;99493.70;;;1.87;71.55
68380;BME280;57711;53.196;19.638;2022-12-10T08:08:37;99493.12;;;1.88;71.50
68380;BME280;57711;53.196;19.638;2022-12-10T08:11:06;99496.63;;;1.86;71.38
68380;BME280;57711;53.196;19.638;2022-12-10T08:13:34;99500.58;;;1.86;71.54
68380;BME280;57711;53.196;19.638;2022-12-10T08:16:06;99502.31;;;1.84;71.45
68380;BME280;57711;53.196;19.638;2022-12-10T08:18:34;99506.79;;;1.81;71.49
68380;BME280;57711;53.196;19.638;2022-12-10T08:21:08;99504.95;;;1.79;71.50
68380;BME280;57711;53.196;19.638;2022-12-10T08:23:35;99508.55;;;1.78;71.39
68380;BME280;57711;53.196;19.638;2022-12-10T08:26:06;99507.76;;;1.77;71.31
68380;BME280;57711;53.196;19.638;2022-12-10T08:28:34;99506.23;;;1.79;71.37
68380;BME280;57711;53.196;19.638;2022-12-10T08:31:02;99504.70;;;1.80;71.36
68380;BME280;57711;53.196;19.638;2022-12-10T08:33:29;99502.27;;;1.82;71.34
68380;BME280;57711;53.196;19.638;2022-12-10T08:35:59;99506.25;;;1.83;71.39
68380;BME280;57711;53.196;19.638;2022-12-10T08:38:29;99504.95;;;1.87;71.46
68380;BME280;57711;53.196;19.638;2022-12-10T08:40:57;99505.20;;;1.89;71.45
68380;BME280;57711;53.196;19.638;2022-12-10T08:43:24;99506.71;;;1.90;71.54
68380;BME280;57711;53.196;19.638;2022-12-10T08:45:52;99508.36;;;1.90;71.43
68380;BME280;57711;53.196;19.638;2022-12-10T08:48:19;99508.83;;;1.88;71.38
68380;BME280;57711;53.196;19.638;2022-12-10T08:50:46;99508.93;;;1.86;71.40
68380;BME280;57711;53.196;19.638;2022-12-10T08:53:13;99509.90;;;1.85;71.45
68380;BME280;57711;53.196;19.638;2022-12-10T08:55:40;99508.27;;;1.83;71.48
68380;BME280;57711;53.196;19.638;2022-12-10T08:58:14;99508.66;;;1.79;71.41
68380;BME280;57711;53.196;19.638;2022-12-10T09:00:42;99509.19;;;1.80;71.51
68380;BME280;57711;53.196;19.638;2022-12-10T09:03:10;99504.69;;;1.83;71.53
68380;BME280;57711;53.196;19.638;2022-12-10T09:05:37;99502.59;;;1.85;71.41
68380;BME280;57711;53.196;19.638;2022-12-10T09:08:04;99499.61;;;1.90;71.41
68380;BME280;57711;53.196;19.638;2022-12-10T09:10:31;99500.40;;;1.94;71.41
68380;BME280;57711;53.196;19.638;2022-12-10T09:12:58;99497.55;;;1.97;71.38
68380;BME280;57711;53.196;19.638;2022-12-10T09:15:29;99498.04;;;1.97;71.37
68380;BME280;57711;53.196;19.638;2022-12-10T09:17:56;99501.54;;;1.96;71.36
68380;BME280;57711;53.196;19.638;2022-12-10T09:20:23;99504.07;;;1.95;71.43
68380;BME280;57711;53.196;19.638;2022-12-10T09:22:51;99503.75;;;1.95;71.43
68380;BME280;57711;53.196;19.638;2022-12-10T09:25:18;99501.70;;;1.94;71.53
68380;BME280;57711;53.196;19.638;2022-12-10T09:27:48;99500.18;;;1.92;71.48
68380;BME280;57711;53.196;19.638;2022-12-10T09:30:15;99498.83;;;1.91;71.55
68380;BME280;57711;53.196;19.638;2022-12-10T09:32:43;99500.09;;;1.91;71.51
68380;BME280;57711;53.196;19.638;2022-12-10T09:35:10;99497.25;;;1.91;71.59
68380;BME280;57711;53.196;19.638;2022-12-10T09:37:37;99495.62;;;1.91;71.51
68380;BME280;57711;53.196;19.638;2022-12-10T09:40:05;99498.06;;;1.92;71.37
68380;BME280;57711;53.196;19.638;2022-12-10T09:42:48;99495.09;;;1.93;71.34
68380;BME280;57711;53.196;19.638;2022-12-10T09:51:26;99495.26;;;1.94;71.32
68380;BME280;57711;53.196;19.638;2022-12-10T09:53:57;99491.98;;;1.95;71.39
68380;BME280;57711;53.196;19.638;2022-12-10T09:56:33;99493.16;;;1.93;71.28
68380;BME280;57711;53.196;19.638;2022-12-10T09:59:11;99494.67;;;1.92;71.39
68380;BME280;57711;53.196;19.638;2022-12-10T10:01:43;99499.61;;;1.89;71.31
68380;BME280;57711;53.196;19.638;2022-12-10T10:04:11;99499.83;;;1.89;71.40
68380;BME280;57711;53.196;19.638;2022-12-10T10:06:39;99497.70;;;1.89;71.44
68380;BME280;57711;53.196;19.638;2022-12-10T10:09:11;99497.09;;;1.87;71.39
68380;BME280;57711;53.196;19.638;2022-12-10T10:11:40;99501.36;;;1.85;71.40
68380;BME280;57711;53.196;19.638;2022-12-10T10:14:14;99505.36;;;1.84;71.49
68380;BME280;57711;53.196;19.638;2022-12-10T10:16:49;99502.92;;;1.85;71.43
68380;BME280;57711;53.196;19.638;2022-12-10T10:19:26;99496.55;;;1.87;71.33
68380;BME280;57711;53.196;19.638;2022-12-10T10:21:54;99496.30;;;1.92;71.37
68380;BME280;57711;53.196;19.638;2022-12-10T10:24:26;99491.36;;;1.96;71.29
68380;BME280;57711;53.196;19.638;2022-12-10T10:26:57;99491.24;;;2.01;71.22
68380;BME280;57711;53.196;19.638;2022-12-10T10:29:25;99488.73;;;2.04;71.26
68380;BME280;57711;53.196;19.638;2022-12-10T10:32:16;99491.75;;;2.06;71.36
68380;BME280;57711;53.196;19.638;2022-12-10T10:34:45;99491.52;;;2.10;71.35
68380;BME280;57711;53.196;19.638;2022-12-10T10:37:20;99490.35;;;2.11;71.28
68380;BME280;57711;53.196;19.638;2022-12-10T10:39:49;99490.30;;;2.12;71.30
68380;BME280;57711;53.196;19.638;2022-12-10T10:42:36;99487.05;;;2.13;71.39
68380;BME280;57711;53.196;19.638;2022-12-10T10:45:30;99488.66;;;2.13;71.29
68380;BME280;57711;53.196;19.638;2022-12-10T10:48:05;99489.23;;;2.12;71.37
68380;BME280;57711;53.196;19.638;2022-12-10T10:50:41;99487.23;;;2.13;71.43
68380;BME280;57711;53.196;19.638;2022-12-10T10:55:53;99485.66;;;2.10;71.27
68380;BME280;57711;53.196;19.638;2022-12-10T10:58:22;99479.25;;;2.06;71.30
68380;BME280;57711;53.196;19.638;2022-12-10T11:00:56;99480.02;;;2.06;71.28
68380;BME280;57711;53.196;19.638;2022-12-10T11:03:25;99480.79;;;2.08;71.25
68380;BME280;57711;53.196;19.638;2022-12-10T11:05:54;99480.76;;;2.11;71.14
68380;BME280;57711;53.196;19.638;2022-12-10T11:08:24;99479.02;;;2.16;71.24
68380;BME280;57711;53.196;19.638;2022-12-10T11:11:03;99476.27;;;2.19;71.18
68380;BME280;57711;53.196;19.638;2022-12-10T11:13:33;99474.95;;;2.20;71.12
68380;BME280;57711;53.196;19.638;2022-12-10T11:18:42;99473.23;;;2.19;71.20
68380;BME280;57711;53.196;19.638;2022-12-10T11:21:19;99471.45;;;2.19;71.22
68380;BME280;57711;53.196;19.638;2022-12-10T11:23:52;99469.64;;;2.20;71.29
68380;BME280;57711;53.196;19.638;2022-12-10T11:26:30;99465.23;;;2.19;71.23
68380;BME280;57711;53.196;19.638;2022-12-10T11:37:48;99456.10;;;2.06;71.21
68380;BME280;57711;53.196;19.638;2022-12-10T11:48:51;99454.49;;;2.09;71.15
68380;BME280;57711;53.196;19.638;2022-12-10T11:51:40;99460.56;;;2.11;71.09
68380;BME280;57711;53.196;19.638;2022-12-10T11:54:25;99461.52;;;2.10;71.10
68380;BME280;57711;53.196;19.638;2022-12-10T11:57:05;99462.26;;;2.10;71.07
68380;BME280;57711;53.196;19.638;2022-12-10T12:05:41;99455.61;;;1.95;71.05
68380;BME280;57711;53.196;19.638;2022-12-10T12:11:42;99454.30;;;1.85;71.08
68380;BME280;57711;53.196;19.638;2022-12-10T12:14:59;99457.40;;;1.84;71.19
68380;BME280;57711;53.196;19.638;2022-12-10T12:17:33;99459.13;;;1.82;71.11
68380;BME280;57711;53.196;19.638;2022-12-10T12:22:53;99459.58;;;1.86;71.07
68380;BME280;57711;53.196;19.638;2022-12-10T12:27:54;99451.84;;;1.93;71.09
68380;BME280;57711;53.196;19.638;2022-12-10T12:30:23;99449.95;;;1.97;71.00
68380;BME280;57711;53.196;19.638;2022-12-10T12:35:50;99453.03;;;1.96;70.96
68380;BME280;57711;53.196;19.638;2022-12-10T12:38:37;99449.05;;;1.94;70.97
68380;BME280;57711;53.196;19.638;2022-12-10T12:44:09;99450.67;;;1.92;71.11
68380;BME280;57711;53.196;19.638;2022-12-10T12:46:44;99453.21;;;1.91;71.13
68380;BME280;57711;53.196;19.638;2022-12-10T12:51:51;99461.39;;;1.88;71.10
68380;BME280;57711;53.196;19.638;2022-12-10T12:54:19;99465.20;;;1.87;71.06
68380;BME280;57711;53.196;19.638;2022-12-10T12:57:06;99462.86;;;1.85;71.08
68380;BME280;57711;53.196;19.638;2022-12-10T12:59:56;99466.42;;;1.85;71.03
68380;BME280;57711;53.196;19.638;2022-12-10T13:05:32;99472.36;;;1.90;70.95
68380;BME280;57711;53.196;19.638;2022-12-10T13:08:23;99472.20;;;1.89;70.78
68380;BME280;57711;53.196;19.638;2022-12-10T13:13:33;99478.33;;;1.91;70.89
68380;BME280;57711;53.196;19.638;2022-12-10T13:24:20;99484.38;;;1.86;71.03
68380;BME280;57711;53.196;19.638;2022-12-10T13:35:29;99490.59;;;1.75;70.90
68380;BME280;57711;53.196;19.638;2022-12-10T13:38:21;99489.23;;;1.77;70.93
68380;BME280;57711;53.196;19.638;2022-12-10T13:41:03;99492.49;;;1.81;70.88
68380;BME280;57711;53.196;19.638;2022-12-10T13:44:00;99497.52;;;1.83;70.74
68380;BME280;57711;53.196;19.638;2022-12-10T13:50:04;99494.77;;;1.82;70.80
68380;BME280;57711;53.196;19.638;2022-12-10T14:06:45;99496.62;;;1.76;70.77
68380;BME280;57711;53.196;19.638;2022-12-10T14:09:21;99495.85;;;1.71;70.59
68380;BME280;57711;53.196;19.638;2022-12-10T14:11:55;99494.06;;;1.68;70.72
68380;BME280;57711;53.196;19.638;2022-12-10T14:14:33;99496.42;;;1.65;70.69
68380;BME280;57711;53.196;19.638;2022-12-10T14:17:24;99495.91;;;1.62;70.71
68380;BME280;57711;53.196;19.638;2022-12-10T14:19:56;99498.73;;;1.57;70.66
68380;BME280;57711;53.196;19.638;2022-12-10T14:25:00;99503.38;;;1.59;70.63
68380;BME280;57711;53.196;19.638;2022-12-10T14:27:28;99509.10;;;1.62;70.49
68380;BME280;57711;53.196;19.638;2022-12-10T14:30:02;99508.23;;;1.64;70.52
68380;BME280;57711;53.196;19.638;2022-12-10T14:32:34;99510.31;;;1.68;70.58
68380;BME280;57711;53.196;19.638;2022-12-10T14:35:08;99505.94;;;1.69;70.50
68380;BME280;57711;53.196;19.638;2022-12-10T14:37:41;99509.30;;;1.73;70.60
68380;BME280;57711;53.196;19.638;2022-12-10T14:40:18;99512.13;;;1.73;70.60
68380;BME280;57711;53.196;19.638;2022-12-10T14:42:46;99513.42;;;1.75;70.66
68380;BME280;57711;53.196;19.638;2022-12-10T14:45:14;99515.17;;;1.75;70.65
68380;BME280;57711;53.196;19.638;2022-12-10T14:47:42;99519.70;;;1.74;70.56
68380;BME280;57711;53.196;19.638;2022-12-10T14:50:16;99516.75;;;1.70;70.55
68380;BME280;57711;53.196;19.638;2022-12-10T14:52:49;99514.23;;;1.68;70.55
68380;BME280;57711;53.196;19.638;2022-12-10T14:55:19;99517.70;;;1.66;70.50
68380;BME280;57711;53.196;19.638;2022-12-10T14:57:52;99518.48;;;1.62;70.56
68380;BME280;57711;53.196;19.638;2022-12-10T15:00:21;99524.15;;;1.61;70.64
68380;BME280;57711;53.196;19.638;2022-12-10T15:02:53;99526.44;;;1.61;70.60
68380;BME280;57711;53.196;19.638;2022-12-10T15:05:29;99531.18;;;1.62;70.46
68380;BME280;57711;53.196;19.638;2022-12-10T15:08:00;99527.14;;;1.64;70.43
68380;BME280;57711;53.196;19.638;2022-12-10T15:10:40;99526.60;;;1.67;70.36
68380;BME280;57711;53.196;19.638;2022-12-10T15:13:18;99526.67;;;1.71;70.46
68380;BME280;57711;53.196;19.638;2022-12-10T15:15:51;99527.46;;;1.73;70.60